• Join FlightAware (Why Join?)
  • Login
  • US Flag 
07:36PM EDT


 

Airport Tracker/Info


-or-


 

Live Flight TrackerFlight Track Log ✈ DAL1646 ✈ 22-Jun-2013 ✈ KPHX - KATL

Flight Track Log - Related Links

Times and Time Zones

All times are in EDT time to prevent confusion due to time zone crossing. See the DAL1646 flight status page for this flight to view local times or setup timezone preferences in your user account.

Time Position Orientation Groundspeed Altitude Reporting Facility
EDT Latitude Longitude Course Direction KTS MPH feet Rate Location/Type
03:59AM 33.4333 -112.0500 82° East 190 219 2,300  Level Phoenix TRACON
04:00AM 33.4197 -112.1256 258° West 223 257 4,300 1,860 Climbing Albuquerque Center
04:01AM 33.3669 -112.1831 222° Southwest 252 290 6,900 2,280 Climbing Albuquerque Center
04:02AM 33.4975 -111.3831 79° East  Level FlightAware Approximate
04:02AM 33.3483 -112.1114 107° East 255 293 8,900  Level Albuquerque Center
04:03AM 33.5156 -111.2261 82° East  Level FlightAware Approximate
04:03AM 33.3694 -112.0161 75° East 297 342 10,500  Level Albuquerque Center
04:04AM 33.5283 -111.0686 82° East  Level FlightAware Approximate
04:04AM 33.3878 -111.9044 79° East 345 397 11,500  Level Albuquerque Center
04:05AM 33.4111 -111.7769 78° East 393 452 12,500 1,080 Climbing Albuquerque Center
04:06AM 33.4364 -111.6358 78° East 430 495 13,700 1,680 Climbing Albuquerque Center
04:07AM 33.4628 -111.4933 77° East 442 509 15,900 1,800 Climbing Albuquerque Center
04:08AM 33.4886 -111.3506 78° East 444 511 17,400 1,500 Climbing Albuquerque Center
04:09AM 33.5147 -111.2011 78° East 460 529 19,000 1,500 Climbing Albuquerque Center
04:10AM 33.5417 -111.0492 78° East 469 540 20,400 1,260 Climbing Albuquerque Center
04:11AM 33.5694 -110.8914 78° East 480 552 21,600 1,140 Climbing Albuquerque Center
04:12AM 33.5967 -110.7311 78° East 490 564 22,700 1,260 Climbing Albuquerque Center
04:13AM 33.6153 -110.5658 82° East 500 575 24,200 1,440 Climbing Albuquerque Center
04:14AM 33.6361 -110.4000 81° East 502 578 25,600 1,440 Climbing Albuquerque Center
04:15AM 33.6581 -110.2353 81° East 502 578 27,200 1,500 Climbing Albuquerque Center
04:16AM 33.6792 -110.0742 81° East 498 573 28,700 900 Climbing Albuquerque Center
04:17AM 33.6986 -109.9133 82° East 493 567 29,000 120 Climbing Albuquerque Center
04:18AM 33.7178 -109.7531 82° East 490 564 29,000  Level Albuquerque Center
04:19AM 33.7378 -109.5914 81° East 490 564 29,000  Level Albuquerque Center
04:20AM 33.7564 -109.4303 82° East 490 564 29,000  Level Albuquerque Center
04:21AM 33.7756 -109.2697 82° East 489 563 29,000  Level Albuquerque Center
04:22AM 33.7944 -109.1075 82° East 490 564 29,000  Level Albuquerque Center
04:23AM 33.8125 -108.9436 82° East 493 567 29,000  Level Albuquerque Center
04:24AM 33.8306 -108.7808 82° East 494 568 29,000  Level Albuquerque Center
04:25AM 33.8483 -108.6181 82° East 494 568 29,000  Level Albuquerque Center
04:26AM 33.8694 -108.4231 83° East 493 567 29,000  Level Albuquerque Center
04:27AM 33.8878 -108.2617 82° East 491 565 29,000 -60 Level Albuquerque Center
04:28AM 33.9022 -108.1181 83° East 493 567 28,900 -60 Descending Albuquerque Center
04:29AM 33.9197 -107.9547 83° East 492 566 28,900  Level Albuquerque Center
04:30AM 33.9383 -107.7883 82° East 498 573 28,900  Level Albuquerque Center
04:31AM 33.9550 -107.6219 83° East 500 575 28,900  Level Albuquerque Center
04:32AM 33.9719 -107.4533 83° East 504 580 28,900  Level Albuquerque Center
04:33AM 33.9883 -107.2875 83° East 501 577 28,900  Level Albuquerque Center
04:34AM 34.0058 -107.1228 83° East 500 575 29,000  Climbing Albuquerque Center
04:35AM 34.0217 -106.9567 83° East 498 573 28,900 -60 Descending Albuquerque Center
04:36AM 34.0378 -106.7850 83° East 504 580 28,900  Level Albuquerque Center
04:37AM 34.0522 -106.6158 84° East 507 583 28,900  Level Albuquerque Center
04:38AM 34.0683 -106.4469 83° East 507 583 28,900  Level Albuquerque Center
04:39AM 34.0842 -106.2814 83° East 502 578 28,900  Level Albuquerque Center
04:40AM 34.1011 -106.1081 83° East 498 573 29,000 180 Climbing Albuquerque Center
04:41AM 34.1175 -105.9392 83° East 500 575 29,300 780 Climbing Albuquerque Center
04:42AM 34.1322 -105.7697 84° East 503 579 30,600 840 Climbing Albuquerque Center
04:43AM 34.1450 -105.5992 85° East 504 580 31,000 180 Climbing Albuquerque Center
04:44AM 34.1592 -105.4328 84° East 500 575 31,000  Level Albuquerque Center
04:45AM 34.1722 -105.2667 85° East 497 572 31,000  Level Albuquerque Center
04:46AM 34.1861 -105.0989 84° East 497 572 31,000  Level Albuquerque Center
04:47AM 34.1992 -104.9303 85° East 500 575 31,000  Level Albuquerque Center
04:48AM 34.2122 -104.7597 85° East 505 581 31,000  Level Albuquerque Center
04:49AM 34.2261 -104.5917 84° East 503 579 31,000  Level Albuquerque Center
04:50AM 34.2397 -104.4239 84° East 499 574 31,000  Level Albuquerque Center
04:51AM 34.2522 -104.2531 85° East 505 581 31,000  Level Albuquerque Center
04:52AM 34.2653 -104.0828 85° East 508 585 31,000  Level Albuquerque Center
04:53AM 34.2772 -103.9139 85° East 505 581 31,000  Level Albuquerque Center
04:54AM 34.2892 -103.7444 85° East 504 580 31,000  Level Albuquerque Center
04:55AM 34.3011 -103.5742 85° East 505 581 31,000  Level Albuquerque Center
04:56AM 34.3128 -103.4072 85° East 501 577 31,000  Level Albuquerque Center
04:57AM 34.3217 -103.2425 86° East 494 568 31,000  Level Albuquerque Center
04:58AM 34.3331 -103.0756 85° East 494 568 31,000  Level Albuquerque Center
04:59AM 34.3447 -102.9106 85° East 497 572 31,000  Level Albuquerque Center
05:00AM 34.3547 -102.7467 86° East 494 568 31,000  Level Albuquerque Center
05:01AM 34.3656 -102.5806 85° East 495 570 31,000  Level Albuquerque Center
05:03AM 34.3756 -102.4150 86° East 496 571 31,000  Level Albuquerque Center
05:04AM 34.3836 -102.2475 87° East 498 573 31,000  Level Albuquerque Center
05:05AM 34.3950 -102.0828 85° East 498 573 31,000  Level Albuquerque Center
05:06AM 34.4036 -101.9156 86° East 500 575 31,000  Level Albuquerque Center
05:07AM 34.4122 -101.7497 86° East 499 574 31,000  Level Albuquerque Center
05:08AM 34.4222 -101.5875 86° East 493 567 31,000  Level Albuquerque Center
05:09AM 34.4300 -101.4239 87° East 491 565 31,000  Level Albuquerque Center
05:10AM 34.4375 -101.2611 87° East 489 563 31,000  Level Albuquerque Center
05:12AM 34.4617 -100.8642 86° East 496 571 31,000  Level Fort Worth Center
05:13AM 34.4661 -100.6981 88° East 496 571 31,000  Level Fort Worth Center
05:14AM 34.4744 -100.5347 86° East 496 571 31,000  Level Fort Worth Center
05:15AM 34.4806 -100.3661 87° East 496 571 31,000  Level Fort Worth Center
05:16AM 34.4886 -100.2000 87° East 491 565 31,000  Level Fort Worth Center
05:17AM 34.4942 -100.0364 88° East 486 559 31,000  Level Fort Worth Center
05:18AM 34.5017 -99.8703 87° East 486 559 31,000  Level Fort Worth Center
05:19AM 34.5028 -99.7067 89° East 486 559 31,000  Level Fort Worth Center
05:20AM 34.5100 -99.5431 87° East 486 559 31,000  Level Fort Worth Center
05:21AM 34.5167 -99.3769 87° East 481 554 31,000  Level Fort Worth Center
05:22AM 34.5211 -99.2181 88° East 486 559 31,000  Level Fort Worth Center
05:23AM 34.5275 -99.0747 87° East 475 547 31,000  Level Fort Worth Center
05:24AM 34.5314 -98.9133 88° East 475 547 31,000  Level Fort Worth Center
05:25AM 34.5356 -98.7494 88° East 482 555 31,000  Level Fort Worth Center
05:26AM 34.5414 -98.5858 87° East 482 555 31,000  Level Fort Worth Center
05:27AM 34.5450 -98.3994 89° East 487 560 31,000  Level Fort Worth Center
05:28AM 34.5503 -98.2356 88° East 487 560 31,000  Level Fort Worth Center
05:29AM 34.5533 -98.0742 89° East 487 560 31,000  Level Fort Worth Center
05:30AM 34.5564 -97.9078 89° East 487 560 31,000  Level Fort Worth Center
05:31AM 34.5589 -97.7464 89° East 481 554 31,000  Level Fort Worth Center
05:32AM 34.5614 -97.5800 89° East 481 554 31,000  Level Fort Worth Center
05:33AM 34.5636 -97.4186 89° East 481 554 31,000  Level Fort Worth Center
05:34AM 34.5656 -97.2547 89° East 476 548 31,000  Level Fort Worth Center
05:35AM 34.5694 -97.0908 88° East 476 548 31,000  Level Fort Worth Center
05:36AM 34.5731 -96.9267 88° East 476 548 31,000  Level Fort Worth Center
05:37AM 34.5744 -96.7628 89° East 476 548 31,000  Level Fort Worth Center
05:38AM 34.5756 -96.6014 89° East 476 548 31,000  Level Fort Worth Center
05:39AM 34.5786 -96.4400 89° East 476 548 31,000  Level Fort Worth Center
05:40AM 34.5792 -96.2786 90° East 476 548 31,000  Level Fort Worth Center
05:41AM 34.5797 -96.1147 90° East 476 548 31,000  Level Fort Worth Center
05:42AM 34.5822 -95.9556 89° East 476 548 31,000  Level Fort Worth Center
05:43AM 34.5803 -95.7942 91° East 476 548 31,000  Level Fort Worth Center
05:44AM 34.5844 -95.6328 88° East 476 548 31,000  Level Fort Worth Center
05:45AM 34.5864 -95.4864 89° East 476 548 31,000  Level Fort Worth Center
05:46AM 34.5858 -95.3250 90° East 476 548 31,000  Level Fort Worth Center
05:47AM 34.5892 -95.1611 89° East 476 548 31,000  Level Fort Worth Center
05:48AM 34.5864 -95.0022 91° East 473 544 31,000  Level Fort Worth Center
05:49AM 34.5889 -94.8231 89° East 468 539 31,000  Level Fort Worth Center
05:50AM 34.5878 -94.6642 90° East 474 545 31,000  Level Fort Worth Center
05:52AM 34.5856 -94.3883 90° East 494 568 31,000  Level Memphis Center
05:53AM 34.5850 -94.2067 90° East 494 568 31,000  Level Memphis Center
05:54AM 34.5794 -94.0425 92° East 488 562 31,000  Level Memphis Center
05:55AM 34.5778 -93.8833 91° East 477 549 31,000  Level Memphis Center
05:56AM 34.5761 -93.7219 91° East 477 549 31,000  Level Memphis Center
05:57AM 34.5742 -93.5553 91° East 482 555 31,000  Level Memphis Center
05:58AM 34.5719 -93.3914 91° East 482 555 31,000  Level Memphis Center
05:59AM 34.5675 -93.2297 92° East 477 549 31,000  Level Memphis Center
06:00AM 34.5647 -93.0708 91° East 477 549 31,000  Level Memphis Center
06:01AM 34.5619 -92.9042 91° East 482 555 31,000  Level Memphis Center
06:02AM 34.5589 -92.7478 91° East 475 547 31,000  Level Memphis Center
06:03AM 34.5556 -92.5889 91° East 475 547 31,000  Level Memphis Center
06:04AM 34.5522 -92.4225 91° East 481 554 31,000  Level Memphis Center
06:05AM 34.5506 -92.2636 91° East 481 554 31,000  Level Memphis Center
06:06AM 34.5444 -92.1019 93° East 481 554 31,000  Level Memphis Center
06:07AM 34.5403 -91.9431 92° East 481 554 31,000  Level Memphis Center
06:08AM 34.5361 -91.7792 92° East 481 554 31,000  Level Memphis Center
06:09AM 34.5336 -91.6378 91° East 476 548 31,000  Level Memphis Center
06:10AM 34.5286 -91.4789 92° East 476 548 31,000  Level Memphis Center
06:11AM 34.5258 -91.3150 91° East 476 548 31,000  Level Memphis Center
06:12AM 34.5186 -91.1561 93° East 476 548 31,000  Level Memphis Center
06:13AM 34.5114 -90.9822 93° East 476 548 31,000  Level Memphis Center
06:14AM 34.5058 -90.8208 92° East 476 548 31,000  Level Memphis Center
06:15AM 34.4978 -90.6619 93° East 476 548 31,000  Level Memphis Center
06:16AM 34.4919 -90.5033 93° East 476 548 31,000  Level Memphis Center
06:17AM 34.4858 -90.3419 93° East 476 548 31,000  Level Memphis Center
06:18AM 34.4794 -90.1833 93° East 471 542 31,000  Level Memphis Center
06:19AM 34.4706 -90.0244 94° East 476 548 31,000  Level Memphis Center
06:20AM 34.4639 -89.8658 93° East 476 548 31,000  Level Memphis Center
06:21AM 34.4569 -89.7072 93° East 476 548 31,000  Level Memphis Center
06:22AM 34.4475 -89.5461 94° East 476 548 31,000  Level Memphis Center
06:23AM 34.4422 -89.3925 92° East 471 542 31,000  Level Memphis Center
06:24AM 34.4347 -89.2314 93° East 471 542 31,000  Level Memphis Center
06:25AM 34.4269 -89.0781 93° East 465 535 31,000  Level Memphis Center
06:26AM 34.4189 -88.9144 93° East 471 542 31,000  Level Memphis Center
06:27AM 34.4128 -88.7611 93° East 471 542 31,000  Level Memphis Center
06:28AM 34.4044 -88.6050 94° East 466 536 31,000  Level Memphis Center
06:29AM 34.3936 -88.4442 95° East 461 531 31,000  Level Memphis Center
06:30AM 34.3850 -88.2883 94° East 461 531 31,000  Level Memphis Center
06:31AM 34.3761 -88.1375 94° East 477 549 31,000  Level Memphis Center
06:32AM 34.3669 -87.9794 94° East 483 556 31,000  Level Memphis Center
06:33AM 34.3553 -87.8211 95° East 472 543 31,000  Level Memphis Center
06:34AM 34.3481 -87.6653 93° East 472 543 31,000 -300 Level Memphis Center
06:36AM 34.3242 -87.3339 95° East 467 537 30,200 -660 Descending Atlanta Center
06:37AM 34.3156 -87.1775 94° East 467 537 29,200 -960 Descending Atlanta Center
06:38AM 34.3053 -87.0111 94° East 474 545 28,300 -720 Descending Atlanta Center
06:39AM 34.2964 -86.8500 94° East 479 551 27,800 -600 Descending Atlanta Center
06:40AM 34.2856 -86.6886 95° East 484 557 27,100 -600 Descending Atlanta Center
06:41AM 34.2744 -86.5225 95° East 484 557 26,600 -600 Descending Atlanta Center
06:42AM 34.2544 -86.3583 98° East 484 557 25,900 -600 Descending Atlanta Center
06:43AM 34.2344 -86.1947 98° East 484 557 25,500 -540 Descending Atlanta Center
06:44AM 34.2144 -86.0333 98° East 484 557 24,900 -600 Descending Atlanta Center
06:45AM 34.1939 -85.8672 98° East 484 557 24,400 -600 Descending Atlanta Center
06:46AM 34.1794 -85.7136 96° East 470 541 23,800 -1,740 Descending Atlanta Center
06:47AM 34.1586 -85.5575 99° East 470 541 21,000 -3,000 Descending Atlanta Center
06:48AM 34.1375 -85.4017 99° East 465 535 17,900 -2,820 Descending Atlanta Center
06:49AM 34.1200 -85.2633 99° East 441 507 15,400 -2,280 Descending Atlanta Center
06:50AM 34.1047 -85.1300 98° East 423 487 13,400 -1,200 Descending Atlanta Center
06:51AM 34.0825 -85.0194 104° East 380 437 13,000 -600 Descending Atlanta Center
06:52AM 34.0119 -84.9636 147° Southeast 293 337 12,300 -1,140 Descending Atlanta Center
06:53AM 33.9350 -84.9378 164° South 280 322 10,800 -1,620 Descending Atlanta Center
06:54AM 33.8581 -84.9144 166° South 280 322 9,100 -1,320 Descending Atlanta Center
06:55AM 33.7911 -84.9011 171° South 280 322 8,200 -600 Descending Atlanta Center
06:56AM 33.7142 -84.8953 176° South 275 316 8,000 -660 Descending Atlanta Center
06:57AM 33.6453 -84.8647 160° South 270 311 6,900 -1,020 Descending Atlanta Center
06:58AM 33.6314 -84.7872 102° East 230 265 6,000 -900 Descending Atlanta Center
06:59AM 33.6297 -84.7150 92° East 210 242 5,200 -840 Descending Atlanta Center